createdAt,value
2023-03-13T00:00:47.063Z,7.43
2023-03-13T00:03:24.696Z,2.67
2023-03-13T00:05:58.130Z,6.35
2023-03-13T00:08:31.127Z,5.47
2023-03-13T00:11:04.757Z,2.88
2023-03-13T00:13:37.809Z,5.50
2023-03-13T00:16:11.682Z,8.45
2023-03-13T00:18:48.711Z,5.95
2023-03-13T00:21:22.586Z,4.25
2023-03-13T00:23:56.047Z,5.55
2023-03-13T00:26:29.476Z,4.03
2023-03-13T00:29:02.594Z,1.98
2023-03-13T00:31:35.240Z,4.22
2023-03-13T00:34:08.535Z,5.78
2023-03-13T00:36:43.004Z,3.25
2023-03-13T00:39:15.931Z,3.38
2023-03-13T00:41:55.083Z,4.10
2023-03-13T00:44:42.252Z,7.57
2023-03-13T00:47:20.701Z,3.92
2023-03-13T00:49:53.731Z,10.55
2023-03-13T00:52:28.465Z,2.90
2023-03-13T00:55:01.528Z,4.03
2023-03-13T00:57:38.236Z,5.60
2023-03-13T01:00:11.536Z,5.47
2023-03-13T01:02:44.358Z,2.60
2023-03-13T01:05:17.670Z,5.18
2023-03-13T01:07:51.427Z,3.75
2023-03-13T01:10:24.359Z,7.75
2023-03-13T01:12:56.860Z,4.30
2023-03-13T01:15:31.421Z,4.10
2023-03-13T01:18:05.283Z,5.68
2023-03-13T01:20:39.035Z,2.00
2023-03-13T01:23:12.215Z,3.83
2023-03-13T01:25:45.205Z,3.53
2023-03-13T01:28:18.026Z,3.85
2023-03-13T01:30:51.116Z,2.53
2023-03-13T01:33:23.951Z,2.10
2023-03-13T01:36:03.362Z,3.95
2023-03-13T01:38:36.559Z,6.55
2023-03-13T01:41:11.432Z,3.70
2023-03-13T01:43:44.805Z,2.78
2023-03-13T01:46:22.045Z,3.30
2023-03-13T01:49:07.798Z,5.30
2023-03-13T01:52:32.667Z,5.28
2023-03-13T01:55:20.087Z,3.28
2023-03-13T01:57:55.378Z,3.42
2023-03-13T02:00:36.649Z,6.60
2023-03-13T02:03:16.450Z,3.92
2023-03-13T02:05:51.008Z,5.15
2023-03-13T02:08:34.422Z,3.78
2023-03-13T02:11:19.548Z,3.65
2023-03-13T02:13:54.925Z,5.53
2023-03-13T02:16:28.114Z,4.35
2023-03-13T02:19:04.119Z,6.25
2023-03-13T02:21:59.908Z,5.03
2023-03-13T02:25:00.486Z,5.40
2023-03-13T02:27:34.357Z,7.72
2023-03-13T02:30:15.424Z,5.20
2023-03-13T02:32:48.063Z,4.10
2023-03-13T02:35:22.351Z,4.70
2023-03-13T02:37:57.468Z,2.40
2023-03-13T02:40:34.930Z,2.95
2023-03-13T02:43:16.070Z,2.30
2023-03-13T02:46:10.049Z,4.03
2023-03-13T02:48:51.878Z,3.42
2023-03-13T02:51:25.399Z,3.20
2023-03-13T02:54:02.242Z,3.00
2023-03-13T02:56:42.131Z,5.68
2023-03-13T02:59:16.649Z,1.88
2023-03-13T03:01:54.532Z,2.92
2023-03-13T03:04:28.154Z,2.88
2023-03-13T03:07:03.064Z,4.43
2023-03-13T03:09:39.542Z,4.53
2023-03-13T03:12:17.225Z,1.38
2023-03-13T03:14:49.934Z,3.75
2023-03-13T03:17:24.191Z,2.60
2023-03-13T03:19:57.015Z,4.25
2023-03-13T03:22:31.518Z,3.30
2023-03-13T03:25:13.164Z,9.02
2023-03-13T03:27:47.727Z,3.40
2023-03-13T03:30:21.123Z,4.65
2023-03-13T03:32:55.022Z,5.45
2023-03-13T03:35:28.753Z,6.97
2023-03-13T03:38:01.715Z,3.45
2023-03-13T03:40:39.066Z,4.85
2023-03-13T03:43:13.517Z,4.13
2023-03-13T03:45:46.810Z,4.72
2023-03-13T03:48:20.502Z,4.22
2023-03-13T03:50:53.103Z,3.92
2023-03-13T03:53:28.543Z,3.60
2023-03-13T03:56:01.529Z,3.72
2023-03-13T03:58:40.773Z,3.70
2023-03-13T04:01:24.593Z,4.95
2023-03-13T04:03:57.850Z,1.75
2023-03-13T04:06:30.767Z,6.25
2023-03-13T04:09:07.554Z,6.32
2023-03-13T04:11:42.266Z,4.35
2023-03-13T04:14:16.858Z,3.25
2023-03-13T04:16:51.390Z,3.30
2023-03-13T04:19:24.540Z,3.70
2023-03-13T04:21:57.272Z,4.50
2023-03-13T04:24:30.897Z,2.90
2023-03-13T04:27:06.820Z,3.00
2023-03-13T04:29:41.527Z,2.63
2023-03-13T04:32:37.801Z,3.72
2023-03-13T04:35:29.035Z,3.10
2023-03-13T04:38:18.669Z,5.60
2023-03-13T04:41:15.084Z,7.47
2023-03-13T04:44:11.147Z,5.25
2023-03-13T04:47:02.788Z,2.20
2023-03-13T04:49:43.803Z,4.15
2023-03-13T04:52:42.063Z,4.20
2023-03-13T04:55:14.694Z,7.88
2023-03-13T04:57:47.618Z,5.65
2023-03-13T05:00:46.289Z,5.32
2023-03-13T05:03:22.188Z,5.45
2023-03-13T05:06:10.979Z,4.95
2023-03-13T05:09:02.930Z,5.25
2023-03-13T05:11:58.026Z,8.05
2023-03-13T05:14:54.265Z,6.63
2023-03-13T05:17:46.977Z,3.42
2023-03-13T05:20:55.052Z,4.63
2023-03-13T05:23:45.871Z,4.30
2023-03-13T05:26:41.930Z,6.93
2023-03-13T05:29:27.483Z,6.22
2023-03-13T05:32:26.372Z,4.43
2023-03-13T05:35:18.814Z,4.97
2023-03-13T05:38:15.220Z,5.28
2023-03-13T05:41:06.350Z,7.90
2023-03-13T05:44:02.766Z,6.43
2023-03-13T05:46:46.632Z,6.10
2023-03-13T05:49:37.934Z,11.82
2023-03-13T05:52:17.071Z,5.38
2023-03-13T05:55:09.527Z,6.25
2023-03-13T05:58:05.065Z,4.43
2023-03-13T06:00:58.174Z,6.85
2023-03-13T06:03:33.756Z,4.68
2023-03-13T06:06:07.271Z,7.82
2023-03-13T06:08:52.641Z,4.90
2023-03-13T06:11:26.557Z,8.95
2023-03-13T06:13:59.252Z,4.60
2023-03-13T06:16:47.351Z,13.18
2023-03-13T06:19:30.640Z,12.45
2023-03-13T06:22:03.493Z,9.60
2023-03-13T06:24:36.613Z,13.27
2023-03-13T06:27:09.476Z,10.45
2023-03-13T06:29:42.062Z,9.77
2023-03-13T06:32:15.218Z,6.93
2023-03-13T06:34:47.987Z,11.40
2023-03-13T06:37:20.867Z,3.45
2023-03-13T06:39:53.402Z,4.35
2023-03-13T06:42:27.033Z,8.45
2023-03-13T06:44:59.590Z,6.15
2023-03-13T06:47:32.773Z,11.05
2023-03-13T06:50:05.758Z,5.13
2023-03-13T06:52:43.873Z,6.88
2023-03-13T06:55:17.086Z,8.07
2023-03-13T06:57:50.814Z,4.25
2023-03-13T07:00:23.667Z,4.28
2023-03-13T07:02:56.659Z,3.65
2023-03-13T07:05:29.346Z,8.00
2023-03-13T07:08:02.383Z,6.22
2023-03-13T07:10:34.873Z,2.88
2023-03-13T07:13:07.704Z,5.07
2023-03-13T07:15:40.774Z,4.63
2023-03-13T07:18:13.716Z,6.28
2023-03-13T07:20:52.084Z,3.88
2023-03-13T07:23:26.113Z,6.97
2023-03-13T07:26:03.112Z,6.60
2023-03-13T07:28:37.814Z,11.70
2023-03-13T07:31:15.055Z,12.52
2023-03-13T07:33:48.811Z,4.43
2023-03-13T07:36:21.399Z,4.30
2023-03-13T07:38:54.268Z,3.45
2023-03-13T07:41:27.159Z,2.60
2023-03-13T07:44:02.010Z,3.65
2023-03-13T07:46:34.663Z,4.50
2023-03-13T07:49:07.800Z,4.88
2023-03-13T07:51:43.881Z,3.83
2023-03-13T07:54:17.352Z,4.15
2023-03-13T07:56:51.290Z,6.07
2023-03-13T07:59:24.212Z,5.55
2023-03-13T08:01:59.504Z,5.38
2023-03-13T08:04:32.458Z,4.28
2023-03-13T08:07:08.429Z,4.20
2023-03-13T08:09:41.788Z,7.10
2023-03-13T08:12:14.344Z,3.45
2023-03-13T08:14:47.247Z,4.95
2023-03-13T08:17:19.723Z,3.72
2023-03-13T08:19:52.575Z,3.42
2023-03-13T08:22:25.194Z,7.75
2023-03-13T08:24:58.086Z,3.55
2023-03-13T08:27:30.987Z,3.42
2023-03-13T08:30:04.495Z,4.70
2023-03-13T08:32:37.331Z,4.40
2023-03-13T08:35:10.893Z,4.40
2023-03-13T08:37:43.809Z,5.88
2023-03-13T08:40:16.859Z,7.45
2023-03-13T08:42:49.363Z,7.88
2023-03-13T08:45:22.632Z,5.10
2023-03-13T08:47:55.101Z,5.88
2023-03-13T08:50:27.960Z,4.93
2023-03-13T08:53:00.496Z,5.63
2023-03-13T08:55:33.411Z,5.68
2023-03-13T08:58:05.866Z,4.18
2023-03-13T09:00:39.075Z,4.15
2023-03-13T09:03:11.863Z,11.63
2023-03-13T09:05:56.071Z,4.82
2023-03-13T09:08:30.203Z,4.03
2023-03-13T09:11:04.376Z,4.38
2023-03-13T09:13:37.976Z,3.75
2023-03-13T09:16:12.324Z,4.28
2023-03-13T09:18:45.350Z,4.63
2023-03-13T09:21:19.763Z,9.52
2023-03-13T09:23:52.701Z,4.93
2023-03-13T09:26:26.513Z,4.55
2023-03-13T09:28:59.071Z,2.97
2023-03-13T09:31:33.458Z,10.90
2023-03-13T09:34:06.163Z,4.80
2023-03-13T09:36:39.550Z,4.90
2023-03-13T09:39:12.117Z,4.53
2023-03-13T09:41:53.563Z,6.68
2023-03-13T09:44:27.296Z,5.00
2023-03-13T09:47:04.209Z,6.00
2023-03-13T09:49:40.945Z,6.13
2023-03-13T09:52:13.765Z,2.58
2023-03-13T09:54:59.235Z,7.57
2023-03-13T09:57:50.552Z,1.65
2023-03-13T10:00:36.893Z,4.28
2023-03-13T10:03:15.544Z,3.42
2023-03-13T10:05:50.365Z,1.42
2023-03-13T10:08:24.268Z,4.18
2023-03-13T10:11:15.600Z,8.63
2023-03-13T10:13:53.788Z,3.10
2023-03-13T10:16:32.604Z,4.70
2023-03-13T10:19:13.337Z,3.78
2023-03-13T10:21:48.098Z,11.43
2023-03-13T10:24:29.954Z,6.90
2023-03-13T10:27:02.508Z,10.05
2023-03-13T10:29:35.525Z,6.35
2023-03-13T10:32:09.008Z,3.90
2023-03-13T10:34:54.008Z,3.38
2023-03-13T10:37:27.934Z,3.80
2023-03-13T10:40:19.630Z,2.72
2023-03-13T10:42:53.238Z,8.43
2023-03-13T10:45:26.184Z,6.95
2023-03-13T10:48:03.260Z,5.70
2023-03-13T10:50:36.305Z,8.80
2023-03-13T10:53:29.036Z,3.20
2023-03-13T10:56:12.629Z,5.22
2023-03-13T10:58:46.619Z,5.13
2023-03-13T11:01:22.478Z,3.05
2023-03-13T11:03:56.551Z,4.30
2023-03-13T11:06:31.266Z,2.88
2023-03-13T11:09:03.798Z,8.60
2023-03-13T11:11:46.030Z,2.88
2023-03-13T11:17:05.547Z,4.53
2023-03-13T11:19:43.402Z,3.92
2023-03-13T11:22:31.207Z,3.97
2023-03-13T11:25:20.928Z,6.63
2023-03-13T11:28:12.518Z,3.78
2023-03-13T11:30:52.001Z,3.15
2023-03-13T11:33:39.497Z,4.40
2023-03-13T11:36:20.452Z,9.88
2023-03-13T11:38:55.829Z,6.65
2023-03-13T11:41:31.384Z,5.10
2023-03-13T11:44:13.693Z,3.75
2023-03-13T11:49:23.669Z,5.78
2023-03-13T11:52:09.925Z,1.90
2023-03-13T11:54:59.181Z,3.58
2023-03-13T11:57:35.606Z,4.53
2023-03-13T12:00:25.955Z,3.72
2023-03-13T12:03:10.742Z,3.55
2023-03-13T12:05:57.825Z,2.42
2023-03-13T12:08:37.735Z,11.90
2023-03-13T12:11:18.520Z,11.13
2023-03-13T12:14:03.191Z,3.08
2023-03-13T12:16:36.205Z,5.72
2023-03-13T12:19:13.161Z,4.80
2023-03-13T12:21:49.226Z,7.50
2023-03-13T12:24:22.950Z,8.60
2023-03-13T12:26:56.255Z,6.25
2023-03-13T12:29:28.878Z,8.05
2023-03-13T12:32:07.787Z,8.07
2023-03-13T12:34:52.578Z,6.88
2023-03-13T12:37:37.337Z,5.82
2023-03-13T12:40:19.712Z,2.72
2023-03-13T12:43:12.821Z,8.00
2023-03-13T12:45:57.661Z,2.90
2023-03-13T12:48:33.701Z,7.13
2023-03-13T12:51:23.851Z,6.78
2023-03-13T12:53:59.868Z,5.68
2023-03-13T12:56:36.447Z,4.75
2023-03-13T12:59:15.526Z,5.70
2023-03-13T13:01:50.261Z,6.43
2023-03-13T13:04:27.799Z,7.78
2023-03-13T13:07:02.662Z,2.58
2023-03-13T13:09:36.902Z,13.13
2023-03-13T13:12:20.325Z,4.45
2023-03-13T13:14:53.278Z,3.78
2023-03-13T13:17:39.979Z,1.27
2023-03-13T13:20:45.468Z,5.88
2023-03-13T13:23:22.676Z,2.85
2023-03-13T13:25:56.625Z,5.57
2023-03-13T13:28:33.883Z,4.45
2023-03-13T13:31:26.984Z,7.57
2023-03-13T13:33:59.585Z,14.25
2023-03-13T13:36:40.715Z,8.05
2023-03-13T13:39:23.636Z,6.68
2023-03-13T13:41:57.086Z,4.93
2023-03-13T13:44:32.365Z,3.95
2023-03-13T13:47:05.298Z,5.45
2023-03-13T13:49:51.545Z,8.95
2023-03-13T13:52:37.692Z,2.55
2023-03-13T13:55:22.639Z,4.65
2023-03-13T13:58:05.949Z,7.13
2023-03-13T14:00:43.521Z,2.95
2023-03-13T14:03:19.576Z,5.18
2023-03-13T14:05:59.688Z,12.48
2023-03-13T14:08:41.760Z,9.48
2023-03-13T14:11:28.488Z,7.53
2023-03-13T14:14:16.374Z,3.45
2023-03-13T14:16:49.070Z,4.57
2023-03-13T14:19:25.083Z,9.65
2023-03-13T14:21:58.372Z,8.90
2023-03-13T14:24:31.666Z,8.02
2023-03-13T14:27:17.910Z,10.77
2023-03-13T14:30:00.621Z,6.10
2023-03-13T14:32:33.267Z,11.30
2023-03-13T14:35:06.766Z,5.22
2023-03-13T14:37:43.900Z,22.75
2023-03-13T14:40:19.673Z,21.10
2023-03-13T14:42:53.946Z,15.05
2023-03-13T14:45:26.896Z,32.47
2023-03-13T14:48:04.240Z,16.40
2023-03-13T14:50:37.200Z,6.68
2023-03-13T14:53:13.958Z,6.13
2023-03-13T14:55:47.360Z,4.72
2023-03-13T14:58:27.939Z,4.40
2023-03-13T15:01:12.280Z,5.15
2023-03-13T15:03:46.341Z,8.68
2023-03-13T15:06:20.639Z,8.95
2023-03-13T15:09:15.296Z,10.43
2023-03-13T15:11:55.619Z,10.65
2023-03-13T15:14:42.615Z,8.63
2023-03-13T15:17:22.986Z,6.78
2023-03-13T15:19:58.987Z,6.03
2023-03-13T15:22:33.100Z,5.35
2023-03-13T15:25:15.945Z,6.93
2023-03-13T15:27:49.815Z,9.18
2023-03-13T15:30:23.971Z,6.28
2023-03-13T15:32:56.920Z,5.70
2023-03-13T15:35:33.244Z,6.03
2023-03-13T15:38:07.519Z,8.00
2023-03-13T15:40:40.254Z,4.63
2023-03-13T15:43:13.670Z,5.05
2023-03-13T15:45:48.293Z,7.60
2023-03-13T15:48:22.664Z,11.65
2023-03-13T15:50:56.244Z,10.82
2023-03-13T15:53:30.498Z,6.70
2023-03-13T15:56:03.669Z,6.75
2023-03-13T15:58:37.641Z,7.40
2023-03-13T16:01:11.244Z,10.48
2023-03-13T16:03:44.377Z,9.10
2023-03-13T16:06:20.946Z,8.27
2023-03-13T16:08:54.032Z,6.38
2023-03-13T16:11:27.265Z,6.65
2023-03-13T16:14:01.070Z,19.75
2023-03-13T16:16:37.584Z,22.27
2023-03-13T16:19:10.686Z,27.73
2023-03-13T16:21:48.614Z,21.67
2023-03-13T16:24:21.827Z,9.35
2023-03-13T16:26:54.435Z,15.68
2023-03-13T16:29:27.339Z,15.27
2023-03-13T16:32:00.209Z,14.23
2023-03-13T16:34:33.198Z,18.10
2023-03-13T16:37:12.658Z,15.18
2023-03-13T16:39:50.949Z,12.13
2023-03-13T16:42:23.461Z,18.23
2023-03-13T16:44:56.367Z,27.90
2023-03-13T16:47:29.518Z,15.93
2023-03-13T16:50:03.069Z,12.00
2023-03-13T16:52:35.713Z,10.98
2023-03-13T16:55:08.769Z,9.18
2023-03-13T16:57:41.271Z,10.82
2023-03-13T17:00:17.100Z,12.05
2023-03-13T17:02:49.879Z,9.50
2023-03-13T17:05:23.161Z,11.25
2023-03-13T17:07:55.759Z,4.90
2023-03-13T17:10:30.589Z,9.63
2023-03-13T17:13:03.812Z,13.80
2023-03-13T17:15:36.760Z,12.10
2023-03-13T17:18:10.027Z,10.85
2023-03-13T17:20:43.045Z,17.13
2023-03-13T17:23:15.589Z,10.40
2023-03-13T17:25:48.671Z,12.27
2023-03-13T17:28:21.305Z,9.07
2023-03-13T17:30:54.410Z,7.65
2023-03-13T17:33:26.946Z,7.28
2023-03-13T17:35:59.847Z,10.68
2023-03-13T17:38:33.018Z,6.32
2023-03-13T17:41:06.164Z,13.98
2023-03-13T17:43:39.165Z,9.73
2023-03-13T17:46:14.568Z,7.05
2023-03-13T17:48:48.320Z,9.60
2023-03-13T17:51:22.769Z,19.10
2023-03-13T17:53:56.243Z,10.68
2023-03-13T17:56:36.621Z,12.18
2023-03-13T17:59:16.689Z,12.25
2023-03-13T18:01:49.590Z,8.98
2023-03-13T18:04:22.229Z,12.45
2023-03-13T18:06:55.089Z,7.80
2023-03-13T18:09:27.675Z,7.97
2023-03-13T18:12:00.485Z,8.25
2023-03-13T18:14:33.069Z,9.60
2023-03-13T18:17:13.655Z,8.27
2023-03-13T18:19:46.792Z,11.57
2023-03-13T18:22:25.630Z,10.95
2023-03-13T18:24:58.572Z,12.95
2023-03-13T18:27:31.510Z,11.43
2023-03-13T18:30:04.459Z,5.82
2023-03-13T18:32:37.373Z,6.78
2023-03-13T18:35:10.667Z,7.22
2023-03-13T18:37:44.950Z,5.05
2023-03-13T18:40:18.261Z,6.88
2023-03-13T18:42:51.196Z,8.18
2023-03-13T18:45:25.134Z,9.23
2023-03-13T18:47:58.022Z,6.78
2023-03-13T18:50:31.322Z,7.80
2023-03-13T18:53:04.259Z,6.97
2023-03-13T18:55:37.373Z,15.95
2023-03-13T18:58:11.120Z,21.40
2023-03-13T19:00:43.980Z,26.42
2023-03-13T19:03:20.527Z,26.27
2023-03-13T19:05:53.245Z,20.38
2023-03-13T19:08:26.197Z,21.00
2023-03-13T19:10:58.688Z,24.48
2023-03-13T19:13:35.538Z,17.40
2023-03-13T19:16:16.213Z,40.38
2023-03-13T19:18:49.966Z,27.70
2023-03-13T19:21:23.904Z,26.55
2023-03-13T19:23:57.194Z,20.70
2023-03-13T19:26:35.604Z,25.48
2023-03-13T19:29:27.743Z,22.80
2023-03-13T19:34:38.286Z,26.40
2023-03-13T19:37:11.651Z,41.17
2023-03-13T19:39:44.640Z,23.15
2023-03-13T19:42:17.173Z,18.30
2023-03-13T19:44:49.995Z,28.48
2023-03-13T19:47:22.583Z,26.98
2023-03-13T19:49:56.983Z,20.85
2023-03-13T19:52:30.350Z,25.13
2023-03-13T19:55:05.355Z,24.48
2023-03-13T19:57:38.185Z,31.83
2023-03-13T20:00:19.874Z,13.13
2023-03-13T20:02:55.259Z,14.85
2023-03-13T20:05:28.505Z,14.32
2023-03-13T20:08:01.017Z,16.55
2023-03-13T20:10:34.418Z,21.63
2023-03-13T20:13:07.107Z,11.07
2023-03-13T20:15:40.095Z,5.18
2023-03-13T20:18:12.766Z,13.15
2023-03-13T20:20:45.783Z,26.40
2023-03-13T20:23:18.384Z,30.52
2023-03-13T20:25:51.654Z,29.13
2023-03-13T20:28:24.212Z,30.90
2023-03-13T20:30:57.281Z,25.35
2023-03-13T20:33:30.120Z,17.38
2023-03-13T20:36:06.894Z,15.18
2023-03-13T20:38:39.669Z,21.80
2023-03-13T20:41:12.671Z,19.80
2023-03-13T20:43:45.315Z,24.63
2023-03-13T20:46:18.370Z,22.70
2023-03-13T20:48:51.090Z,12.80
2023-03-13T20:51:24.124Z,9.48
2023-03-13T20:53:56.792Z,11.63
2023-03-13T20:56:29.654Z,11.82
2023-03-13T20:59:02.246Z,6.50
2023-03-13T21:01:35.440Z,2.97
2023-03-13T21:04:08.029Z,4.10
2023-03-13T21:06:41.555Z,4.35
2023-03-13T21:09:14.126Z,5.25
2023-03-13T21:11:48.241Z,7.78
2023-03-13T21:14:21.014Z,6.25
2023-03-13T21:17:00.719Z,9.32
2023-03-13T21:19:34.472Z,8.75
2023-03-13T21:22:07.346Z,4.57
2023-03-13T21:24:40.165Z,6.05
2023-03-13T21:27:14.593Z,3.28
2023-03-13T21:29:52.104Z,4.65
2023-03-13T21:35:50.371Z,11.32
2023-03-13T21:38:24.049Z,4.80
2023-03-13T21:40:56.615Z,8.13
2023-03-13T21:43:29.639Z,6.68
2023-03-13T21:46:05.140Z,14.70
2023-03-13T21:48:38.538Z,10.82
2023-03-13T21:51:11.959Z,7.13
2023-03-13T21:53:45.034Z,3.40
2023-03-13T21:56:17.940Z,6.10
2023-03-13T21:58:51.035Z,6.38
2023-03-13T22:01:23.676Z,15.07
2023-03-13T22:03:56.643Z,12.93
2023-03-13T22:06:29.116Z,6.50
2023-03-13T22:09:05.870Z,4.38
2023-03-13T22:11:38.931Z,8.68
2023-03-13T22:14:11.873Z,4.55
2023-03-13T22:16:44.420Z,2.47
2023-03-13T22:19:20.186Z,2.67
2023-03-13T22:21:52.951Z,4.00
2023-03-13T22:24:25.939Z,4.55
2023-03-13T22:26:58.559Z,2.65
2023-03-13T22:29:32.850Z,5.18
2023-03-13T22:32:05.688Z,3.03
2023-03-13T22:34:38.837Z,4.32
2023-03-13T22:37:12.385Z,2.17
2023-03-13T22:39:45.382Z,2.85
2023-03-13T22:42:18.170Z,2.58
2023-03-13T22:44:51.128Z,3.10
2023-03-13T22:47:26.212Z,5.85
2023-03-13T22:49:59.202Z,4.07
2023-03-13T22:52:33.587Z,3.78
2023-03-13T22:55:06.638Z,2.72
2023-03-13T22:57:40.805Z,3.63
2023-03-13T23:00:13.931Z,4.35
2023-03-13T23:02:47.344Z,2.88
2023-03-13T23:05:20.484Z,3.97
2023-03-13T23:07:53.122Z,3.45
2023-03-13T23:10:27.305Z,4.32
2023-03-13T23:13:05.953Z,5.22
2023-03-13T23:15:55.223Z,3.92
2023-03-13T23:18:32.466Z,3.40
2023-03-13T23:21:07.994Z,4.88
2023-03-13T23:23:40.590Z,5.30
2023-03-13T23:26:14.817Z,2.63
2023-03-13T23:28:47.529Z,2.88
2023-03-13T23:31:21.617Z,2.42
2023-03-13T23:33:54.306Z,4.15
2023-03-13T23:36:27.370Z,3.10
2023-03-13T23:39:00.040Z,1.92
2023-03-13T23:41:33.125Z,1.88
2023-03-13T23:44:05.805Z,3.55
2023-03-13T23:46:41.723Z,1.33
2023-03-13T23:49:14.240Z,3.78
2023-03-13T23:51:49.774Z,2.40
2023-03-13T23:54:23.485Z,2.67
2023-03-13T23:56:56.472Z,2.58
2023-03-13T23:59:28.965Z,1.20
